createdAt,value
2017-12-15T08:43:21.936Z,92.18
2017-12-15T08:44:21.877Z,91.14
2017-12-15T08:45:21.852Z,91.14
2017-12-15T08:46:21.847Z,91.33
2017-12-15T08:47:21.832Z,91.24
2017-12-15T08:48:22.614Z,91.33
2017-12-15T08:49:21.548Z,91.24
2017-12-15T08:50:21.810Z,90.57
2017-12-15T08:51:21.528Z,89.91
2017-12-15T08:52:21.774Z,90.48
2017-12-15T08:53:21.762Z,90.71
2017-12-15T08:54:21.757Z,90.1
2017-12-15T08:55:21.755Z,89.62
2017-12-15T08:56:21.762Z,89.91
2017-12-15T08:57:21.726Z,90.52
2017-12-15T08:58:21.973Z,90.14
2017-12-15T08:59:21.710Z,90.14
2017-12-15T09:00:21.710Z,88.81
2017-12-15T09:01:21.439Z,88.15
2017-12-15T09:02:21.691Z,88.81
2017-12-15T09:03:21.675Z,89.86
2017-12-15T09:04:21.668Z,89.39
2017-12-15T09:05:21.667Z,89.95
2017-12-15T09:06:21.655Z,90.14
2017-12-15T09:07:21.655Z,90.62
2017-12-15T09:08:21.640Z,88.81
2017-12-15T09:09:21.636Z,88.62
2017-12-15T09:10:21.639Z,88.53
2017-12-15T09:11:21.638Z,87.49
2017-12-15T09:12:21.612Z,86.91
2017-12-15T09:13:21.609Z,87.39
2017-12-15T09:14:21.347Z,86.44
2017-12-15T09:15:21.604Z,87.3
2017-12-15T09:16:21.586Z,87.01
2017-12-15T09:17:21.585Z,85.91
2017-12-15T09:18:21.626Z,85.3
2017-12-15T09:19:21.577Z,85.59
2017-12-15T09:20:21.324Z,84.83
2017-12-15T09:21:21.558Z,84.83
2017-12-15T09:22:21.554Z,84.36
2017-12-15T09:23:21.301Z,86.07
2017-12-15T09:24:21.291Z,86.91
2017-12-15T09:25:21.546Z,86.11
2017-12-15T09:26:21.535Z,85.91
2017-12-15T09:27:21.527Z,86.87
2017-12-15T09:28:21.264Z,86.49
2017-12-15T09:29:21.514Z,85.35
2017-12-15T09:30:21.519Z,85.06
2017-12-15T09:31:21.501Z,84.01
2017-12-15T09:32:21.500Z,84.21
2017-12-15T09:33:21.491Z,84.49
2017-12-15T09:34:21.234Z,85.53
2017-12-15T09:35:21.529Z,85.06
2017-12-15T09:36:21.486Z,85.44
2017-12-15T09:37:21.470Z,84.78
2017-12-15T09:38:21.468Z,84.49
2017-12-15T09:39:21.462Z,84.11
2017-12-15T09:40:21.678Z,84.21
2017-12-15T09:41:21.454Z,84.68
2017-12-15T09:42:21.448Z,84.11
2017-12-15T09:43:21.496Z,83.64
2017-12-15T09:44:21.462Z,83.83
2017-12-15T09:45:21.452Z,84.49
2017-12-15T09:46:21.429Z,84.4
2017-12-15T09:47:21.433Z,83.83
2017-12-15T09:48:21.487Z,83.54
2017-12-15T09:49:21.415Z,82.97
2017-12-15T09:50:21.180Z,83.07
2017-12-15T09:51:21.490Z,83.73
2017-12-15T09:52:21.409Z,82.97
2017-12-15T09:53:21.397Z,83.73
2017-12-15T09:54:21.399Z,82.88
2017-12-15T09:55:21.400Z,82.69
2017-12-15T09:56:21.139Z,81.87
2017-12-15T09:57:21.393Z,81.26
2017-12-15T09:58:21.831Z,81.07
2017-12-15T09:59:21.372Z,81.49
2017-12-15T10:00:21.377Z,82.07
2017-12-15T10:01:21.362Z,81.97
2017-12-15T10:02:21.359Z,81.3
2017-12-15T10:03:21.356Z,81.21
2017-12-15T10:04:21.098Z,80.64
2017-12-15T10:05:21.354Z,80.16
2017-12-15T10:06:21.346Z,79.97
2017-12-15T10:07:21.341Z,80.07
2017-12-15T10:08:21.346Z,80.16
2017-12-15T10:09:21.346Z,80.35
2017-12-15T10:10:21.330Z,79.5
2017-12-15T10:11:21.329Z,79.63
2017-12-15T10:12:21.067Z,79.06
2017-12-15T10:13:21.368Z,78.36
2017-12-15T10:14:21.310Z,79.06
2017-12-15T10:15:21.308Z,79.54
2017-12-15T10:16:21.310Z,79.25
2017-12-15T10:17:21.300Z,78.27
2017-12-15T10:18:21.050Z,78.88
2017-12-15T10:19:21.053Z,78.55
2017-12-15T10:20:21.319Z,79.73
2017-12-15T10:21:21.296Z,79.6
2017-12-15T10:22:21.294Z,79.73
2017-12-15T10:52:54.742Z,79.16
2017-12-15T10:53:54.986Z,79.44
2017-12-15T10:54:54.983Z,78.5
2017-12-15T10:55:54.967Z,78.3
2017-12-15T10:56:54.975Z,79.6
2017-12-15T10:57:54.950Z,80.35
2017-12-15T10:58:54.936Z,79.6
2017-12-15T10:59:54.933Z,79.97
2017-12-15T11:00:54.665Z,80.35
2017-12-15T11:01:54.915Z,79.88
2017-12-15T11:02:54.921Z,79.5
2017-12-15T11:03:54.907Z,79.79
2017-12-15T11:04:54.904Z,80.35
2017-12-15T11:05:54.935Z,80.07
2017-12-15T11:06:54.926Z,80.93
2017-12-15T11:07:55.205Z,80.93
2017-12-15T11:08:54.874Z,79.44
2017-12-15T11:09:54.612Z,79.16
2017-12-15T11:10:54.864Z,79.41
2017-12-15T11:11:54.861Z,79.35
2017-12-15T11:12:54.868Z,79.54
2017-12-15T11:13:54.856Z,79.06
2017-12-15T11:14:54.845Z,78.5
2017-12-15T11:15:54.834Z,78.4
2017-12-15T11:16:54.837Z,79.35
2017-12-15T11:17:54.834Z,78.5
2017-12-15T11:18:54.579Z,76.97
2017-12-15T11:19:54.563Z,76.78
2017-12-15T11:20:54.559Z,76.97
2017-12-15T11:21:54.831Z,77.36
2017-12-15T11:22:54.808Z,76.88
2017-12-15T11:23:54.547Z,77.17
2017-12-15T11:24:54.797Z,77.36
2017-12-15T11:25:54.792Z,77.26
2017-12-15T11:26:54.789Z,77.36
2017-12-15T11:27:54.788Z,77.92
2017-12-15T11:28:54.780Z,78.02
2017-12-15T11:29:54.780Z,76.78
2017-12-15T11:30:54.527Z,76.59
2017-12-15T11:31:54.778Z,77.45
2017-12-15T11:32:54.783Z,77.17
2017-12-15T11:33:54.789Z,77.26
2017-12-15T11:34:54.767Z,76.5
2017-12-15T11:35:54.508Z,76.5
2017-12-15T11:36:54.505Z,76.4
2017-12-15T11:37:55.014Z,76.4
2017-12-15T11:38:54.746Z,75.55
2017-12-15T11:39:54.496Z,75.45
2017-12-15T11:40:54.755Z,75.93
2017-12-15T11:41:54.483Z,76.59
2017-12-15T11:42:54.733Z,76.5
2017-12-15T11:43:54.474Z,76.5
2017-12-15T11:44:54.727Z,75.74
2017-12-15T11:45:54.727Z,76.59
2017-12-15T11:46:54.722Z,76.4
2017-12-15T11:47:54.725Z,76.21
2017-12-15T11:48:54.458Z,76.31
2017-12-15T11:49:54.708Z,75.55
2017-12-15T11:50:54.711Z,75.84
2017-12-15T11:51:54.706Z,76.4
2017-12-15T11:52:55.496Z,76.78
2017-12-15T11:53:54.696Z,76.4
2017-12-15T11:54:54.702Z,75.84
2017-12-15T11:55:54.685Z,76.31
2017-12-15T11:56:54.430Z,75.93
2017-12-15T11:57:54.677Z,76.21
2017-12-15T11:58:54.675Z,76.31
2017-12-15T11:59:54.671Z,75.55
2017-12-15T12:00:54.667Z,76.5
2017-12-15T12:01:54.665Z,76.88
2017-12-15T12:02:54.660Z,77.45
2017-12-15T12:03:54.658Z,76.88
2017-12-15T12:04:54.656Z,77.45
2017-12-15T12:05:54.406Z,77.45
2017-12-15T12:06:54.404Z,76.97
2017-12-15T12:07:55.695Z,76.4
2017-12-15T12:08:54.638Z,75.74
2017-12-15T12:09:54.639Z,75.36
2017-12-15T12:10:54.631Z,74.98
2017-12-15T12:11:54.380Z,74.88
2017-12-15T12:12:54.627Z,74.12
2017-12-15T12:13:54.623Z,73.27
2017-12-15T12:14:54.618Z,73.74
2017-12-15T12:15:54.618Z,73.93
2017-12-15T12:16:54.612Z,73.93
2017-12-15T12:17:54.612Z,74.12
2017-12-15T12:18:54.608Z,73.74
2017-12-15T12:19:54.605Z,74.03
2017-12-15T12:20:54.600Z,74.51
2017-12-15T12:21:54.343Z,75.93
2017-12-15T12:22:54.591Z,75.84
2017-12-15T12:23:54.586Z,74.12
2017-12-15T12:24:54.589Z,74.41
2017-12-15T12:25:54.330Z,75.26
2017-12-15T12:26:54.326Z,75.93
2017-12-15T12:27:54.582Z,75.93
2017-12-15T12:28:54.570Z,76.03
2017-12-15T12:29:54.568Z,75.07
2017-12-15T12:30:54.322Z,75.55
2017-12-15T12:31:54.560Z,75.45
2017-12-15T12:32:54.560Z,75.26
2017-12-15T12:33:54.304Z,74.98
2017-12-15T12:34:54.546Z,73.93
2017-12-15T12:35:54.544Z,73.74
2017-12-15T12:36:54.540Z,74.79
2017-12-15T12:37:54.547Z,75.36
2017-12-15T12:38:54.290Z,76.21
2017-12-15T12:39:54.276Z,74.98
2017-12-15T12:40:54.274Z,74.31
2017-12-15T12:41:54.525Z,74.98
2017-12-15T12:42:54.263Z,74.98
2017-12-15T12:43:54.512Z,75.93
2017-12-15T12:44:54.509Z,75.74
2017-12-15T12:45:54.507Z,75.17
2017-12-15T12:46:54.255Z,76.21
2017-12-15T12:47:54.242Z,76.21
2017-12-15T12:48:54.492Z,76.03
2017-12-15T12:49:54.490Z,76.88
2017-12-15T12:50:54.489Z,76.75
2017-12-15T12:51:54.502Z,77.6
2017-12-15T12:52:54.481Z,78.45
2017-12-15T12:53:54.475Z,80.26
2017-12-15T12:54:54.465Z,79.5
2017-12-15T12:55:54.461Z,80.26
2017-12-15T12:56:54.202Z,81.68
2017-12-15T12:57:54.465Z,81.78
2017-12-15T12:58:54.459Z,81.97
2017-12-15T12:59:54.451Z,80.93
2017-12-15T13:00:54.193Z,81.21
2017-12-15T13:01:54.447Z,82.35
2017-12-15T13:02:54.177Z,82.73
2017-12-15T13:03:54.429Z,82.64
2017-12-15T13:04:54.420Z,82.35
2017-12-15T13:05:54.416Z,82.26
2017-12-15T13:06:54.423Z,81.78
2017-12-15T13:07:54.151Z,81.93
2017-12-15T13:08:58.509Z,82.16
2017-12-15T13:09:54.393Z,82.64
2017-12-15T13:10:54.396Z,82.26
2017-12-15T13:11:54.398Z,82.92
2017-12-15T13:12:54.138Z,83.01
2017-12-15T13:13:54.392Z,83.78
2017-12-15T13:14:54.373Z,83.49
2017-12-15T13:15:54.123Z,83.97
2017-12-15T13:16:54.365Z,83.87
2017-12-15T13:17:54.105Z,83.2
2017-12-15T13:18:54.353Z,83.78
2017-12-15T13:19:54.392Z,83.68
2017-12-15T13:20:54.344Z,83.49
2017-12-15T13:21:54.107Z,83.39
2017-12-15T13:22:54.338Z,83.39
2017-12-15T13:23:54.332Z,82.64
2017-12-15T13:24:54.327Z,82.92
2017-12-15T13:25:54.325Z,82.73
2017-12-15T13:26:54.329Z,83.11
2017-12-15T13:27:54.315Z,83.49
2017-12-15T13:28:54.313Z,82.54
2017-12-15T13:29:54.307Z,81.68
2017-12-15T13:30:54.300Z,81.21
2017-12-15T13:31:54.296Z,81.21
2017-12-15T13:32:54.296Z,81.35
2017-12-15T13:33:54.291Z,81.06
2017-12-15T13:34:54.286Z,80.3
2017-12-15T13:35:54.287Z,80.96
2017-12-15T13:36:54.027Z,81.35
2017-12-15T13:37:54.285Z,80.87
2017-12-15T13:38:54.023Z,80.87
2017-12-15T13:39:54.270Z,81.54
2017-12-15T13:40:54.260Z,81.82
2017-12-15T13:41:54.005Z,81.92
2017-12-15T13:42:54.008Z,81.44
2017-12-15T13:43:53.998Z,81.35
2017-12-15T13:44:54.255Z,81.35
2017-12-15T13:45:53.987Z,81.92
2017-12-15T13:46:54.239Z,81.44
2017-12-15T13:47:54.231Z,81.82
2017-12-15T13:48:54.229Z,82.39
2017-12-15T13:49:54.226Z,80.96
2017-12-15T13:50:54.222Z,80.87
2017-12-15T13:51:54.231Z,76.59
2017-12-15T13:52:53.975Z,75.93
2017-12-15T13:53:54.213Z,75.93
2017-12-15T13:54:54.204Z,75.64
2017-12-15T13:55:54.204Z,76.5
2017-12-15T13:56:54.203Z,76.69
2017-12-15T13:57:54.194Z,76.31
2017-12-15T13:58:54.189Z,76.31
2017-12-15T13:59:54.186Z,74.98
2017-12-15T14:00:54.244Z,75.07
2017-12-15T14:01:54.177Z,75.93
2017-12-15T14:02:53.928Z,76.69
2017-12-15T14:03:54.173Z,76.88
2017-12-15T14:04:54.163Z,77.17
2017-12-15T14:05:54.159Z,76.5
2017-12-15T14:06:54.157Z,76.18
2017-12-15T14:07:54.165Z,76.4
2017-12-15T14:08:53.895Z,79.83
2017-12-15T14:09:55.993Z,83.01
2017-12-15T14:10:54.142Z,85.01
2017-12-15T14:11:54.131Z,86.34
2017-12-15T14:12:54.128Z,87.53
2017-12-15T14:13:54.120Z,88.57
2017-12-15T14:14:53.872Z,89.33
2017-12-15T14:15:54.115Z,90.19
2017-12-15T14:16:54.107Z,90.95
2017-12-15T14:17:54.102Z,91.71
2017-12-15T14:18:54.096Z,92.66
2017-12-15T14:19:53.846Z,93.23
2017-12-15T14:20:54.086Z,93.27
2017-12-15T14:21:53.830Z,94.6
2017-12-15T14:22:53.822Z,94.79
2017-12-15T14:23:54.076Z,95.84
2017-12-15T14:24:54.068Z,96.69
2017-12-15T14:25:54.056Z,96.88
2017-12-15T14:26:54.052Z,97.45
2017-12-15T14:27:54.107Z,98.59
2017-12-15T14:28:53.786Z,97.92
2017-12-15T14:29:53.787Z,97.64
2017-12-15T14:30:54.036Z,97.92
2017-12-15T14:31:53.768Z,98.02
2017-12-15T14:32:54.015Z,98.02
2017-12-15T14:33:54.008Z,98.07
2017-12-15T14:34:53.749Z,98.54
2017-12-15T14:35:53.995Z,99.77
2017-12-15T14:36:53.991Z,99.49
2017-12-15T14:37:53.993Z,99.99
2017-12-15T14:38:53.725Z,99.99
2017-12-15T14:39:53.975Z,99.99
2017-12-15T14:40:53.965Z,99.99
2017-12-15T14:41:53.959Z,99.68
2017-12-15T14:42:53.952Z,99.99
2017-12-15T14:43:53.951Z,99.99
2017-12-15T14:44:53.953Z,99.99
2017-12-15T14:45:53.940Z,99.99
2017-12-15T14:46:53.929Z,99.99
2017-12-15T14:47:53.923Z,99.99
2017-12-15T14:48:53.684Z,99.3
2017-12-15T14:49:53.908Z,99.68
2017-12-15T14:50:53.664Z,98.92
2017-12-15T14:51:53.897Z,98.63
2017-12-15T14:52:53.893Z,98.07
2017-12-15T14:53:53.630Z,97.4
2017-12-15T14:54:53.882Z,97.59
2017-12-15T14:55:53.622Z,97.69
2017-12-15T14:56:53.867Z,97.4
2017-12-15T14:57:53.604Z,97.59
2017-12-15T14:58:53.606Z,98.16
2017-12-15T14:59:53.864Z,98.16
2017-12-15T15:00:53.841Z,97.88
2017-12-15T15:01:53.831Z,97.69
2017-12-15T15:02:53.826Z,96.83
2017-12-15T15:03:53.832Z,96.55
2017-12-15T15:04:53.850Z,96.73
2017-12-15T15:05:53.808Z,97.4
2017-12-15T15:06:53.801Z,98.07
2017-12-15T15:07:53.794Z,98.54
2017-12-15T15:08:53.785Z,98.82
2017-12-15T15:09:53.788Z,99.58
2017-12-15T15:10:53.774Z,99.99
2017-12-15T15:11:53.515Z,99.99
2017-12-15T15:12:53.760Z,99.99
2017-12-15T15:13:53.756Z,99.99
2017-12-15T15:14:53.751Z,99.99
2017-12-15T15:15:53.741Z,99.99
2017-12-15T15:16:53.741Z,99.99
2017-12-15T15:17:53.725Z,99.99
2017-12-15T15:18:53.470Z,99.99
2017-12-15T15:19:53.713Z,99.99
2017-12-15T15:20:53.706Z,99.99
2017-12-15T15:21:53.781Z,99.99
2017-12-15T15:22:53.699Z,99.99
2017-12-15T15:23:53.686Z,99.99
2017-12-15T15:24:53.681Z,99.99
2017-12-15T15:25:54.479Z,99.99
2017-12-15T15:26:53.682Z,99.99
2017-12-15T15:27:53.659Z,99.99
2017-12-15T15:28:53.657Z,99.99
2017-12-15T15:29:53.643Z,99.99
2017-12-15T15:30:53.641Z,99.99
2017-12-15T15:31:53.378Z,99.99
2017-12-15T15:32:53.622Z,99.99
2017-12-15T15:33:53.363Z,99.99
2017-12-15T15:34:53.605Z,99.99
2017-12-15T15:35:53.629Z,99.99
2017-12-15T15:36:53.594Z,99.99
2017-12-15T15:37:53.589Z,99.99
2017-12-15T15:38:53.582Z,99.99
2017-12-15T15:39:53.340Z,99.99
2017-12-15T15:40:55.164Z,99.99
2017-12-15T15:41:53.564Z,99.99
2017-12-15T15:42:53.554Z,99.99
2017-12-15T15:43:53.291Z,99.99
2017-12-15T15:44:53.534Z,99.99
2017-12-15T15:45:53.280Z,99.99
2017-12-15T15:46:53.535Z,99.99
2017-12-15T15:47:53.514Z,99.99
2017-12-15T15:48:53.257Z,99.99
2017-12-15T15:49:53.245Z,99.99
2017-12-15T15:50:53.515Z,99.99
2017-12-15T15:51:53.229Z,99.99
2017-12-15T15:52:53.228Z,99.99
2017-12-15T15:53:53.227Z,99.99
2017-12-15T15:54:53.465Z,99.99
2017-12-15T15:55:53.454Z,99.99
2017-12-15T15:56:53.456Z,99.99
2017-12-15T15:57:53.188Z,99.99
2017-12-15T15:58:53.434Z,99.99
2017-12-15T15:59:53.427Z,99.99
2017-12-15T16:00:53.424Z,99.99
2017-12-15T16:01:53.423Z,99.99
2017-12-15T16:02:53.401Z,99.99
2017-12-15T16:03:53.142Z,99.99
2017-12-15T16:04:53.134Z,99.99
2017-12-15T16:05:53.380Z,99.99
2017-12-15T16:06:53.369Z,99.99
2017-12-15T16:07:53.130Z,99.99
2017-12-15T16:08:53.370Z,99.99
2017-12-15T16:09:53.356Z,99.99
2017-12-15T16:10:53.096Z,99.99
2017-12-15T16:11:53.342Z,99.99
2017-12-15T16:12:53.073Z,99.99
2017-12-15T16:13:53.321Z,99.99
2017-12-15T16:14:53.311Z,99.99
2017-12-15T16:15:53.308Z,99.99
2017-12-15T16:16:53.299Z,99.99
2017-12-15T16:17:53.033Z,99.99
2017-12-15T16:18:53.283Z,99.99
2017-12-15T16:19:53.270Z,99.99
2017-12-15T16:20:53.262Z,99.99
2017-12-15T16:21:53.256Z,99.99
2017-12-15T16:22:53.249Z,99.99
2017-12-15T16:23:53.238Z,99.99
2017-12-15T16:24:53.229Z,99.99
2017-12-15T16:25:53.230Z,99.99
2017-12-15T16:26:53.215Z,99.99
2017-12-15T16:27:53.206Z,99.99
2017-12-15T16:28:53.197Z,99.99
2017-12-15T16:29:53.194Z,99.99
2017-12-15T16:30:53.184Z,99.99
2017-12-15T16:31:53.176Z,99.99
2017-12-15T16:32:53.166Z,99.99
2017-12-15T16:33:53.162Z,99.99
2017-12-15T16:34:53.150Z,99.99
2017-12-15T16:35:52.892Z,99.99
2017-12-15T16:36:52.882Z,99.99
2017-12-15T16:37:52.873Z,99.99
2017-12-15T16:38:52.870Z,99.99
2017-12-15T16:39:52.857Z,99.99
2017-12-15T16:40:52.853Z,99.99
2017-12-15T16:41:53.112Z,99.99
2017-12-15T16:42:53.085Z,99.99
2017-12-15T16:43:53.080Z,99.99
2017-12-15T16:44:53.070Z,99.99
2017-12-15T16:45:53.064Z,99.99
2017-12-15T16:46:52.800Z,99.99
2017-12-15T16:47:52.792Z,99.99
2017-12-15T16:48:53.037Z,99.99
2017-12-15T16:49:53.027Z,99.99
2017-12-15T16:50:52.764Z,99.99
2017-12-15T16:51:53.027Z,99.99
2017-12-15T16:52:52.754Z,99.99
2017-12-15T16:53:52.992Z,99.99
2017-12-15T16:54:52.737Z,99.99
2017-12-15T16:55:52.977Z,99.99
2017-12-15T16:56:52.733Z,99.99
2017-12-15T16:57:52.971Z,99.99
2017-12-15T16:58:52.959Z,99.99
2017-12-15T16:59:52.942Z,99.99
2017-12-15T17:00:52.933Z,99.99
2017-12-15T17:01:52.928Z,99.99
2017-12-15T17:02:52.983Z,99.99
2017-12-15T17:03:52.909Z,99.99
2017-12-15T17:04:52.900Z,99.99
2017-12-15T17:05:52.896Z,99.99
2017-12-15T17:06:52.643Z,99.99
2017-12-15T17:07:52.889Z,99.99
2017-12-15T17:08:52.867Z,99.99
2017-12-15T17:09:52.863Z,99.99
2017-12-15T17:10:52.851Z,99.99
2017-12-15T17:11:57.148Z,99.99
2017-12-15T17:12:52.834Z,99.99
2017-12-15T17:13:52.827Z,99.99
2017-12-15T17:14:52.817Z,99.99
2017-12-15T17:15:52.567Z,99.99
2017-12-15T17:16:52.804Z,99.99
2017-12-15T17:17:52.793Z,99.99
2017-12-15T17:18:52.541Z,99.99
2017-12-15T17:19:52.528Z,99.99
2017-12-15T17:20:52.794Z,99.99
2017-12-15T17:21:52.505Z,99.99
2017-12-15T17:22:52.498Z,99.99
2017-12-15T17:23:52.742Z,99.99
2017-12-15T17:24:52.736Z,99.99
2017-12-15T17:25:52.728Z,99.99
2017-12-15T17:26:52.465Z,99.99
2017-12-15T17:27:52.708Z,99.99
2017-12-15T17:28:52.698Z,99.99
2017-12-15T17:29:52.720Z,99.99
2017-12-15T17:30:52.683Z,99.99
2017-12-15T17:31:52.673Z,99.99
2017-12-15T17:32:52.665Z,99.99
2017-12-15T17:33:52.658Z,99.99
2017-12-15T17:34:52.405Z,99.99
2017-12-15T17:35:52.644Z,99.99
2017-12-15T17:36:52.646Z,99.99
2017-12-15T17:37:52.622Z,99.99
2017-12-15T17:38:52.674Z,99.99
2017-12-15T17:39:52.689Z,99.99
2017-12-15T17:40:52.605Z,99.99
2017-12-15T17:41:52.599Z,99.99
2017-12-15T17:42:52.596Z,99.99
2017-12-15T17:43:52.385Z,99.99
2017-12-15T17:44:52.573Z,99.99
2017-12-15T17:45:52.351Z,99.99
2017-12-15T17:46:52.552Z,99.99
2017-12-15T17:47:52.288Z,99.99
2017-12-15T17:48:52.539Z,99.99
2017-12-15T17:49:52.269Z,99.77
2017-12-15T17:50:52.520Z,99.99
2017-12-15T17:51:52.517Z,99.99
2017-12-15T17:52:52.500Z,99.99
2017-12-15T17:53:52.496Z,99.99
2017-12-15T17:54:52.484Z,99.99
2017-12-15T17:55:52.217Z,99.99
2017-12-15T17:56:52.462Z,99.99
2017-12-15T17:57:52.249Z,99.67
2017-12-15T17:58:52.212Z,99.99
2017-12-15T17:59:52.440Z,99.77
2017-12-15T18:00:52.493Z,99.99
2017-12-15T18:01:52.431Z,99.99
2017-12-15T18:02:52.422Z,99.99
2017-12-15T18:03:52.464Z,99.99
2017-12-15T18:04:52.398Z,99.86
2017-12-15T18:05:52.395Z,99.67
2017-12-15T18:06:52.385Z,97.97
2017-12-15T18:07:52.374Z,97.68
2017-12-15T18:08:52.120Z,97.68
2017-12-15T18:09:52.106Z,96.92
2017-12-15T18:10:52.420Z,97.4
2017-12-15T18:11:52.418Z,97.21
2017-12-15T18:12:52.600Z,96.92
2017-12-15T18:13:52.328Z,95.03
2017-12-15T18:14:52.074Z,94.37
2017-12-15T18:15:52.055Z,94.84
2017-12-15T18:16:52.047Z,95.12
2017-12-15T18:17:52.294Z,95.07
2017-12-15T18:18:52.030Z,95.26
2017-12-15T18:19:52.277Z,95.93
2017-12-15T18:20:52.272Z,95.74
2017-12-15T18:21:52.269Z,94.6
2017-12-15T18:22:51.999Z,94.79
2017-12-15T18:23:51.989Z,94.98
2017-12-15T18:24:52.235Z,95.07
2017-12-15T18:25:51.970Z,95.26
2017-12-15T18:26:52.216Z,95.31
2017-12-15T18:27:51.958Z,95.22
2017-12-15T18:28:52.197Z,95.12
2017-12-15T18:29:52.196Z,95.12
2017-12-15T18:30:52.189Z,95.88
2017-12-15T18:31:52.174Z,96.45
2017-12-15T18:32:51.913Z,96.55
2017-12-15T18:33:51.909Z,97.11
2017-12-15T18:34:52.158Z,97.3
2017-12-15T18:35:51.890Z,97.3
2017-12-15T18:36:51.887Z,98.25
2017-12-15T18:37:52.128Z,97.97
2017-12-15T18:38:52.118Z,98.63
2017-12-15T18:39:52.112Z,99.58
2017-12-15T18:40:52.110Z,99.2
2017-12-15T18:41:51.873Z,99.58
2017-12-15T18:42:52.091Z,99.86
2017-12-15T18:43:51.825Z,99.77
2017-12-15T18:44:52.071Z,99.96
2017-12-15T18:45:52.056Z,99.99
2017-12-15T18:46:51.799Z,99.99
2017-12-15T18:47:52.045Z,99.99
2017-12-15T18:48:52.042Z,99.99
2017-12-15T18:49:51.778Z,99.99
2017-12-15T18:50:52.023Z,99.77
2017-12-15T18:51:51.760Z,99.99
2017-12-15T18:52:51.751Z,99.99
2017-12-15T18:53:51.996Z,99.99
2017-12-15T18:54:52.010Z,99.99
2017-12-15T18:55:51.987Z,99.99
2017-12-15T18:56:51.796Z,99.99
2017-12-15T18:57:51.710Z,99.99
2017-12-15T18:58:51.746Z,99.99
2017-12-15T18:59:51.955Z,99.99
2017-12-15T19:00:51.691Z,99.99
2017-12-15T19:01:51.923Z,99.99
2017-12-15T19:02:51.664Z,99.99
2017-12-15T19:03:51.661Z,99.99
2017-12-15T19:04:51.912Z,99.99
2017-12-15T19:05:51.649Z,99.99
2017-12-15T19:06:51.677Z,99.99
2017-12-15T19:07:51.875Z,99.99
2017-12-15T19:08:51.862Z,99.99
2017-12-15T19:09:51.602Z,99.99
2017-12-15T19:10:51.845Z,99.99
2017-12-15T19:11:51.594Z,99.99
2017-12-15T19:12:51.835Z,99.99
2017-12-15T19:13:55.022Z,99.99
2017-12-15T19:14:51.817Z,99.99
2017-12-15T19:15:51.604Z,99.99
2017-12-15T19:16:51.804Z,99.99
2017-12-15T19:17:51.531Z,99.99
2017-12-15T19:18:51.523Z,99.99
2017-12-15T19:19:51.776Z,99.99
2017-12-15T19:20:51.757Z,99.99
2017-12-15T19:21:51.750Z,99.99
2017-12-15T19:22:51.738Z,99.99
2017-12-15T19:23:51.730Z,99.99
2017-12-15T19:24:51.472Z,99.99
2017-12-15T19:25:51.721Z,99.99
2017-12-15T19:26:51.768Z,99.99
2017-12-15T19:27:51.460Z,99.99
2017-12-15T19:28:51.695Z,99.99
2017-12-15T19:29:51.682Z,99.99
2017-12-15T19:30:51.423Z,99.99
2017-12-15T19:31:51.420Z,99.99
2017-12-15T19:32:51.665Z,99.99
2017-12-15T19:33:51.651Z,99.99
2017-12-15T19:34:51.388Z,99.99
2017-12-15T19:35:51.629Z,99.99
2017-12-15T19:36:51.626Z,99.99
2017-12-15T19:37:51.381Z,99.99
2017-12-15T19:38:51.620Z,99.99
2017-12-15T19:39:51.592Z,99.99
2017-12-15T19:40:51.587Z,99.99
2017-12-15T19:41:51.577Z,99.99
2017-12-15T19:42:51.321Z,99.99
2017-12-15T19:43:51.316Z,99.99
2017-12-15T19:44:51.550Z,99.99
2017-12-15T19:45:51.661Z,99.99
2017-12-15T19:46:51.529Z,99.99
2017-12-15T19:47:51.559Z,99.99
2017-12-15T19:48:51.524Z,99.99
2017-12-15T19:49:51.510Z,99.99
2017-12-15T19:50:51.240Z,99.99
2017-12-15T19:51:51.495Z,99.99
2017-12-15T19:52:51.238Z,99.99
2017-12-15T19:53:51.464Z,99.99
2017-12-15T19:54:51.461Z,99.99
2017-12-15T19:55:51.227Z,99.99
2017-12-15T19:56:51.219Z,99.99
2017-12-15T19:57:51.450Z,99.99
2017-12-15T19:58:51.462Z,99.99
2017-12-15T19:59:51.414Z,99.99
2017-12-15T20:00:51.426Z,99.99
2017-12-15T20:01:51.411Z,99.99
2017-12-15T20:02:51.152Z,99.99
2017-12-15T20:03:51.395Z,99.99
2017-12-15T20:04:51.155Z,99.99
2017-12-15T20:05:51.371Z,99.99
2017-12-15T20:06:51.386Z,99.99
2017-12-15T20:07:51.342Z,99.99
2017-12-15T20:08:51.353Z,99.99
2017-12-15T20:09:51.338Z,99.99
2017-12-15T20:10:51.351Z,99.99
2017-12-15T20:11:51.321Z,99.99
2017-12-15T20:12:51.300Z,99.99
2017-12-15T20:13:51.060Z,99.99
2017-12-15T20:14:52.614Z,99.99
2017-12-15T20:15:51.036Z,99.99
2017-12-15T20:16:51.270Z,99.99
2017-12-15T20:17:51.253Z,99.99
2017-12-15T20:18:51.244Z,99.99
2017-12-15T20:19:51.251Z,99.99
2017-12-15T20:20:51.235Z,99.99
2017-12-15T20:21:50.979Z,99.99
2017-12-15T20:22:51.239Z,99.99
2017-12-15T20:23:51.231Z,99.99
2017-12-15T20:24:51.217Z,99.99
2017-12-15T20:25:51.216Z,99.99
2017-12-15T20:26:50.930Z,99.99
2017-12-15T20:27:50.918Z,99.99
2017-12-15T20:28:51.187Z,99.99
2017-12-15T20:29:50.921Z,99.99
2017-12-15T20:30:51.167Z,99.99
2017-12-15T20:31:51.134Z,99.99
2017-12-15T20:32:51.128Z,99.99
2017-12-15T20:33:51.132Z,99.99
2017-12-15T20:34:50.878Z,99.99
2017-12-15T20:35:50.848Z,99.99
2017-12-15T20:36:50.840Z,99.99
2017-12-15T20:37:51.100Z,99.99
2017-12-15T20:38:51.108Z,99.99
2017-12-15T20:39:50.812Z,99.99
2017-12-15T20:40:50.828Z,99.99
2017-12-15T20:41:51.056Z,99.99
2017-12-15T20:42:51.080Z,99.99
2017-12-15T20:43:51.048Z,99.99
2017-12-15T20:44:51.033Z,99.99
2017-12-15T20:45:51.039Z,99.99
2017-12-15T20:46:51.021Z,99.99
2017-12-15T20:47:51.039Z,99.99
2017-12-15T20:48:50.733Z,99.99
2017-12-15T20:49:50.980Z,99.99
2017-12-15T20:50:50.718Z,99.99
2017-12-15T20:51:50.997Z,99.99
2017-12-15T20:52:50.715Z,99.99
2017-12-15T20:53:50.967Z,99.99
2017-12-15T20:54:50.935Z,99.99
2017-12-15T20:55:50.685Z,99.99
2017-12-15T20:56:50.694Z,99.99
2017-12-15T20:57:50.924Z,99.99
2017-12-15T20:58:50.645Z,99.99
2017-12-15T20:59:50.663Z,99.99
2017-12-15T21:00:50.640Z,99.99
2017-12-15T21:01:50.912Z,99.99
2017-12-15T21:02:50.886Z,99.99
2017-12-15T21:03:50.855Z,99.99
2017-12-15T21:04:50.876Z,99.99
2017-12-15T21:05:50.871Z,99.99
2017-12-15T21:06:50.591Z,99.99
2017-12-15T21:07:50.824Z,99.99
2017-12-15T21:08:50.811Z,99.99
2017-12-15T21:09:50.844Z,99.99
2017-12-15T21:10:50.814Z,99.99
2017-12-15T21:11:50.819Z,99.99
2017-12-15T21:12:50.538Z,99.99
2017-12-15T21:13:50.782Z,99.99
2017-12-15T21:14:50.536Z,99.99
2017-12-15T21:15:50.512Z,99.99
2017-12-15T21:16:50.509Z,99.99
2017-12-15T21:17:50.741Z,99.99
2017-12-15T21:18:50.759Z,99.99
2017-12-15T21:19:50.714Z,99.99
2017-12-15T21:20:50.466Z,99.99
2017-12-15T21:21:50.717Z,99.99
2017-12-15T21:22:50.709Z,99.99
2017-12-15T21:23:50.679Z,99.99
2017-12-15T21:24:50.755Z,99.99
2017-12-15T21:25:50.433Z,99.99
2017-12-15T21:26:50.688Z,99.99
2017-12-15T21:27:50.661Z,99.99
2017-12-15T21:28:50.649Z,99.99
2017-12-15T21:29:50.400Z,99.99
2017-12-15T21:30:50.687Z,99.99
2017-12-15T21:31:50.623Z,99.99
2017-12-15T21:32:50.391Z,99.99
2017-12-15T21:33:50.634Z,99.99
2017-12-15T21:34:50.587Z,99.99
2017-12-15T21:35:50.587Z,99.99
2017-12-15T21:36:50.589Z,99.99
2017-12-15T21:37:50.319Z,99.99
2017-12-15T21:38:50.579Z,99.99
2017-12-15T21:39:50.578Z,99.99
2017-12-15T21:40:50.561Z,99.99
2017-12-15T21:41:50.289Z,99.99
2017-12-15T21:42:50.547Z,99.99
2017-12-15T21:43:50.287Z,99.99
2017-12-15T21:44:50.258Z,99.99
2017-12-15T21:45:51.567Z,99.99
2017-12-15T21:46:50.478Z,99.99
2017-12-15T21:47:50.505Z,99.99
2017-12-15T21:48:50.222Z,99.99
2017-12-15T21:49:50.476Z,99.99
2017-12-15T21:50:50.210Z,99.99
2017-12-15T21:51:50.474Z,99.99
2017-12-15T21:52:50.215Z,99.99
2017-12-15T21:53:50.182Z,99.99
2017-12-15T21:54:50.171Z,99.99
2017-12-15T21:55:50.620Z,99.99
2017-12-15T21:56:50.173Z,99.99
2017-12-15T21:57:50.407Z,99.99
2017-12-15T21:58:50.395Z,99.99
2017-12-15T21:59:50.387Z,99.99
2017-12-15T22:00:50.412Z,99.99
2017-12-15T22:01:50.116Z,99.99
2017-12-15T22:02:50.349Z,99.99
2017-12-15T22:03:50.376Z,99.99
2017-12-15T22:04:50.355Z,99.99
2017-12-15T22:05:50.097Z,99.99
2017-12-15T22:06:50.326Z,99.99